createdAt,value
2017-10-05T00:02:11.611Z,84.00
2017-10-05T00:04:42.436Z,83.60
2017-10-05T00:07:13.308Z,83.70
2017-10-05T00:09:44.430Z,83.50
2017-10-05T00:12:15.533Z,83.60
2017-10-05T00:14:46.561Z,83.50
2017-10-05T00:17:18.104Z,83.50
2017-10-05T00:19:48.877Z,83.50
2017-10-05T00:22:19.982Z,83.30
2017-10-05T00:24:50.977Z,83.40
2017-10-05T00:27:21.341Z,83.40
2017-10-05T00:29:52.874Z,83.10
2017-10-05T00:32:23.325Z,83.10
2017-10-05T00:34:53.756Z,82.90
2017-10-05T00:37:24.534Z,83.10
2017-10-05T00:39:56.770Z,82.80
2017-10-05T00:42:27.892Z,82.80
2017-10-05T00:44:59.238Z,82.80
2017-10-05T00:47:30.813Z,82.80
2017-10-05T00:50:01.625Z,82.90
2017-10-05T00:52:32.482Z,82.90
2017-10-05T00:55:04.795Z,83.70
2017-10-05T00:57:35.747Z,83.70
2017-10-05T01:00:07.029Z,83.80
2017-10-05T01:02:38.490Z,84.10
2017-10-05T01:05:08.808Z,84.10
2017-10-05T01:07:40.121Z,84.50
2017-10-05T01:10:10.890Z,84.50
2017-10-05T01:12:42.402Z,84.50
2017-10-05T01:15:13.206Z,84.60
2017-10-05T01:17:44.552Z,84.60
2017-10-05T01:20:15.569Z,84.80
2017-10-05T01:22:46.686Z,84.70
2017-10-05T01:25:17.525Z,84.70
2017-10-05T01:27:48.362Z,84.60
2017-10-05T01:30:19.413Z,84.80
2017-10-05T01:32:50.941Z,84.80
2017-10-05T01:35:22.572Z,85.00
2017-10-05T01:37:53.572Z,85.00
2017-10-05T01:40:24.083Z,85.20
2017-10-05T01:42:55.234Z,85.10
2017-10-05T01:45:26.306Z,85.10
2017-10-05T01:47:58.463Z,84.40
2017-10-05T01:50:29.262Z,85.00
2017-10-05T01:53:00.093Z,85.00
2017-10-05T01:55:30.890Z,84.60
2017-10-05T01:58:03.139Z,84.40
2017-10-05T02:00:33.753Z,85.00
2017-10-05T02:03:05.680Z,84.60
2017-10-05T02:05:36.958Z,85.10
2017-10-05T02:08:08.311Z,85.20
2017-10-05T02:10:39.290Z,85.10
2017-10-05T02:13:09.834Z,85.10
2017-10-05T02:15:40.545Z,85.10
2017-10-05T02:18:12.472Z,84.80
2017-10-05T02:20:44.147Z,85.50
2017-10-05T02:23:14.961Z,85.30
2017-10-05T02:25:46.255Z,85.40
2017-10-05T02:28:17.167Z,85.40
2017-10-05T02:30:48.184Z,85.40
2017-10-05T02:33:20.076Z,85.50
2017-10-05T02:35:50.545Z,85.50
2017-10-05T02:38:23.761Z,85.70
2017-10-05T02:40:55.467Z,85.70
2017-10-05T02:43:26.250Z,85.70
2017-10-05T02:45:57.536Z,85.70
2017-10-05T02:48:28.175Z,85.70
2017-10-05T02:50:59.081Z,85.00
2017-10-05T02:53:29.876Z,85.60
2017-10-05T02:56:00.784Z,85.60
2017-10-05T02:58:32.602Z,84.80
2017-10-05T03:01:03.076Z,85.40
2017-10-05T03:03:34.076Z,85.30
2017-10-05T03:06:04.840Z,85.40
2017-10-05T03:08:35.830Z,85.40
2017-10-05T03:11:06.362Z,85.40
2017-10-05T03:13:38.126Z,85.70
2017-10-05T03:16:09.413Z,85.60
2017-10-05T03:18:40.972Z,85.60
2017-10-05T03:21:12.234Z,85.60
2017-10-05T03:26:16.928Z,85.50
2017-10-05T03:28:47.646Z,86.00
2017-10-05T03:33:50.662Z,86.40
2017-10-05T03:36:21.418Z,86.40
2017-10-05T03:38:53.400Z,86.20
2017-10-05T03:41:25.103Z,86.20
2017-10-05T03:43:56.817Z,86.80
2017-10-05T03:46:27.360Z,86.80
2017-10-05T03:48:58.247Z,86.90
2017-10-05T03:51:29.045Z,87.10
2017-10-05T03:54:01.034Z,86.90
2017-10-05T03:56:32.180Z,87.40
2017-10-05T03:59:02.903Z,87.40
2017-10-05T04:01:34.573Z,87.60
2017-10-05T04:04:06.053Z,87.60
2017-10-05T04:06:37.022Z,87.90
2017-10-05T04:09:08.127Z,87.90
2017-10-05T04:11:39.016Z,88.00
2017-10-05T04:14:10.905Z,88.70
2017-10-05T04:16:41.687Z,88.00
2017-10-05T04:19:12.093Z,88.10
2017-10-05T04:21:42.841Z,88.10
2017-10-05T04:24:14.010Z,88.10
2017-10-05T04:26:44.982Z,88.20
2017-10-05T04:29:15.905Z,88.20
2017-10-05T04:31:46.706Z,88.10
2017-10-05T04:34:17.440Z,88.20
2017-10-05T04:36:48.430Z,88.60
2017-10-05T04:39:19.575Z,88.80
2017-10-05T04:41:51.435Z,90.40
2017-10-05T04:44:22.488Z,90.60
2017-10-05T04:46:53.231Z,91.30
2017-10-05T04:49:24.104Z,91.90
2017-10-05T04:51:55.132Z,92.40
2017-10-05T04:54:27.035Z,92.90
2017-10-05T04:56:58.179Z,93.20
2017-10-05T04:59:30.484Z,93.70
2017-10-05T05:02:01.252Z,93.70
2017-10-05T05:04:32.081Z,93.90
2017-10-05T05:07:03.259Z,93.90
2017-10-05T05:09:33.980Z,94.10
2017-10-05T05:12:04.937Z,93.60
2017-10-05T05:14:36.157Z,93.80
2017-10-05T05:17:07.648Z,93.90
2017-10-05T05:19:38.957Z,93.90
2017-10-05T05:22:10.235Z,93.90
2017-10-05T05:24:40.950Z,94.00
2017-10-05T05:27:12.125Z,94.20
2017-10-05T05:29:43.170Z,94.00
2017-10-05T05:32:13.845Z,94.00
2017-10-05T05:34:45.477Z,93.90
2017-10-05T05:37:16.603Z,93.90
2017-10-05T05:39:47.698Z,93.80
2017-10-05T05:42:19.844Z,93.30
2017-10-05T05:44:51.773Z,93.40
2017-10-05T05:47:22.609Z,93.60
2017-10-05T05:52:26.188Z,93.50
2017-10-05T05:54:56.936Z,93.90
2017-10-05T05:57:27.850Z,93.80
2017-10-05T05:59:59.669Z,93.50
2017-10-05T06:02:30.799Z,93.70
2017-10-05T06:05:03.405Z,93.70
2017-10-05T06:07:34.348Z,94.00
2017-10-05T06:10:05.594Z,93.80
2017-10-05T06:12:37.716Z,93.70
2017-10-05T06:15:09.329Z,93.80
2017-10-05T06:17:41.058Z,93.90
2017-10-05T06:20:13.026Z,93.70
2017-10-05T06:22:45.472Z,94.10
2017-10-05T06:25:16.071Z,94.10
2017-10-05T06:27:46.950Z,94.10
2017-10-05T06:30:18.715Z,93.90
2017-10-05T06:32:49.354Z,93.90
2017-10-05T06:35:21.369Z,93.50
2017-10-05T06:37:53.906Z,93.40
2017-10-05T06:40:24.598Z,93.70
2017-10-05T06:45:28.545Z,93.80
2017-10-05T06:47:59.788Z,93.70
2017-10-05T06:50:30.700Z,93.80
2017-10-05T06:53:01.511Z,93.90
2017-10-05T06:55:32.795Z,94.00
2017-10-05T06:58:03.171Z,94.00
2017-10-05T07:00:34.606Z,94.00
2017-10-05T07:03:06.065Z,93.90
2017-10-05T07:05:38.732Z,94.30
2017-10-05T07:08:09.579Z,94.30
2017-10-05T07:10:40.758Z,94.50
2017-10-05T07:13:12.674Z,94.40
2017-10-05T07:15:44.955Z,94.30
2017-10-05T07:18:17.153Z,94.50
2017-10-05T07:20:49.093Z,94.50
2017-10-05T07:23:20.808Z,95.10
2017-10-05T07:25:52.362Z,95.20
2017-10-05T07:28:23.482Z,95.30
2017-10-05T07:30:54.325Z,95.40
2017-10-05T07:33:25.569Z,95.80
2017-10-05T07:35:57.101Z,95.80
2017-10-05T07:38:28.187Z,96.10
2017-10-05T07:40:59.501Z,96.30
2017-10-05T07:43:31.202Z,96.30
2017-10-05T07:46:03.277Z,96.40
2017-10-05T07:48:34.643Z,96.50
2017-10-05T07:51:07.136Z,96.60
2017-10-05T07:53:38.162Z,96.60
2017-10-05T07:56:08.881Z,96.80
2017-10-05T07:58:40.764Z,96.80
2017-10-05T08:01:11.973Z,96.60
2017-10-05T08:03:45.129Z,96.60
2017-10-05T08:06:16.901Z,96.90
2017-10-05T08:08:48.775Z,97.00
2017-10-05T08:11:19.246Z,97.00
2017-10-05T08:13:49.791Z,97.00
2017-10-05T08:16:22.146Z,97.30
2017-10-05T08:18:53.815Z,97.30
2017-10-05T08:21:25.998Z,97.40
2017-10-05T08:23:57.295Z,97.40
2017-10-05T08:26:28.553Z,97.30
2017-10-05T08:28:59.357Z,97.10
2017-10-05T08:31:31.600Z,97.20
2017-10-05T08:34:03.169Z,97.20
2017-10-05T08:36:35.550Z,97.10
2017-10-05T08:39:07.187Z,97.20
2017-10-05T08:41:38.018Z,97.20
2017-10-05T08:44:08.931Z,97.10
2017-10-05T08:46:40.110Z,97.40
2017-10-05T08:49:11.104Z,97.20
2017-10-05T08:51:41.503Z,97.20
2017-10-05T08:54:12.081Z,97.10
2017-10-05T08:56:42.990Z,97.20
2017-10-05T08:59:14.111Z,97.10
2017-10-05T09:01:45.789Z,96.80
2017-10-05T09:04:17.025Z,96.80
2017-10-05T09:06:48.016Z,97.00
2017-10-05T09:09:18.712Z,96.90
2017-10-05T09:11:50.508Z,97.10
2017-10-05T09:14:22.582Z,97.10
2017-10-05T09:16:54.296Z,97.10
2017-10-05T09:19:25.548Z,97.10
2017-10-05T09:21:56.566Z,96.90
2017-10-05T09:24:27.919Z,97.00
2017-10-05T09:26:58.987Z,97.20
2017-10-05T09:29:30.256Z,97.00
2017-10-05T09:32:03.701Z,96.90
2017-10-05T09:34:34.879Z,97.10
2017-10-05T09:37:05.968Z,97.30
2017-10-05T09:39:37.277Z,97.30
2017-10-05T09:42:09.375Z,97.20
2017-10-05T09:44:40.612Z,97.10
2017-10-05T09:47:11.974Z,97.00
2017-10-05T09:49:42.937Z,97.00
2017-10-05T09:52:15.374Z,97.00
2017-10-05T09:54:47.936Z,96.60
2017-10-05T09:57:20.084Z,96.80
2017-10-05T09:59:51.205Z,97.30
2017-10-05T10:02:21.749Z,96.90
2017-10-05T10:04:52.982Z,96.90
2017-10-05T10:07:24.060Z,97.00
2017-10-05T10:09:55.155Z,97.10
2017-10-05T10:12:27.127Z,97.40
2017-10-05T10:14:58.235Z,97.10
2017-10-05T10:17:29.880Z,97.20
2017-10-05T10:20:01.602Z,96.80
2017-10-05T10:22:32.067Z,96.80
2017-10-05T10:25:02.596Z,97.10
2017-10-05T10:27:34.275Z,96.50
2017-10-05T10:30:06.040Z,95.00
2017-10-05T10:32:37.461Z,95.20
2017-10-05T10:35:08.708Z,95.40
2017-10-05T10:37:40.066Z,94.70
2017-10-05T10:40:11.589Z,94.70
2017-10-05T10:42:42.525Z,94.30
2017-10-05T10:45:13.482Z,93.60
2017-10-05T10:47:44.725Z,92.80
2017-10-05T10:50:15.548Z,92.80
2017-10-05T10:52:46.766Z,92.10
2017-10-05T10:55:17.604Z,92.20
2017-10-05T10:57:49.194Z,92.20
2017-10-05T11:00:20.291Z,91.00
2017-10-05T11:02:52.007Z,85.90
2017-10-05T11:05:23.643Z,86.10
2017-10-05T11:07:54.740Z,84.30
2017-10-05T11:10:25.819Z,82.80
2017-10-05T11:12:56.557Z,81.40
2017-10-05T11:15:26.915Z,79.60
2017-10-05T11:23:03.258Z,77.80
2017-10-05T11:25:34.469Z,77.70
2017-10-05T11:28:05.464Z,77.00
2017-10-05T11:30:36.764Z,78.30
2017-10-05T11:33:07.725Z,78.40
2017-10-05T11:35:38.784Z,78.40
2017-10-05T11:38:09.751Z,78.60
2017-10-05T11:40:41.089Z,74.10
2017-10-05T11:43:13.421Z,72.40
2017-10-05T11:45:45.024Z,73.00
2017-10-05T11:50:49.047Z,71.20
2017-10-05T11:53:21.165Z,68.70
2017-10-05T11:55:52.986Z,68.10
2017-10-05T11:58:23.996Z,68.00
2017-10-05T12:00:54.980Z,65.70
2017-10-05T12:03:25.783Z,64.90
2017-10-05T12:05:57.264Z,64.70
2017-10-05T12:08:28.105Z,64.60
2017-10-05T12:10:58.797Z,64.60
2017-10-05T12:13:30.262Z,68.90
2017-10-05T12:16:01.412Z,68.70
2017-10-05T12:18:33.308Z,70.20
2017-10-05T12:21:03.994Z,70.10
2017-10-05T12:23:34.588Z,70.40
2017-10-05T12:26:06.626Z,68.00
2017-10-05T12:28:37.796Z,68.10
2017-10-05T12:31:08.474Z,67.10
2017-10-05T12:33:40.335Z,65.90
2017-10-05T12:36:12.119Z,67.30
2017-10-05T12:38:43.781Z,67.30
2017-10-05T12:41:14.834Z,68.30
2017-10-05T12:43:46.278Z,69.70
2017-10-05T12:46:17.021Z,71.20
2017-10-05T12:48:47.539Z,72.70
2017-10-05T12:51:18.443Z,73.20
2017-10-05T12:53:49.344Z,73.50
2017-10-05T12:56:20.351Z,71.80
2017-10-05T12:58:51.794Z,72.20
2017-10-05T13:01:22.680Z,71.90
2017-10-05T13:03:55.150Z,71.90
2017-10-05T13:06:26.725Z,71.90
2017-10-05T13:08:56.982Z,72.30
2017-10-05T13:11:27.563Z,71.70
2017-10-05T13:13:59.028Z,71.40
2017-10-05T13:16:30.317Z,71.40
2017-10-05T13:19:01.274Z,70.70
2017-10-05T13:21:32.633Z,72.40
2017-10-05T13:24:04.069Z,71.00
2017-10-05T13:26:36.274Z,71.00
2017-10-05T13:29:07.321Z,71.60
2017-10-05T13:31:38.142Z,70.30
2017-10-05T13:34:09.377Z,64.80
2017-10-05T13:36:41.416Z,62.60
2017-10-05T13:39:12.177Z,62.20
2017-10-05T13:41:42.415Z,61.20
2017-10-05T13:44:15.248Z,59.40
2017-10-05T13:46:46.658Z,57.90
2017-10-05T13:49:17.976Z,56.60
2017-10-05T13:51:49.237Z,57.10
2017-10-05T13:54:20.816Z,56.70
2017-10-05T13:56:52.403Z,56.80
2017-10-05T13:59:22.855Z,57.20
2017-10-05T14:01:54.420Z,55.80
2017-10-05T14:04:25.386Z,55.70
2017-10-05T14:06:57.290Z,55.30
2017-10-05T14:09:28.250Z,55.30
2017-10-05T14:11:59.398Z,57.10
2017-10-05T14:14:31.008Z,62.10
2017-10-05T14:17:02.126Z,62.10
2017-10-05T14:19:32.984Z,69.10
2017-10-05T14:22:04.303Z,76.90
2017-10-05T14:24:35.189Z,77.80
2017-10-05T14:27:06.054Z,82.40
2017-10-05T14:29:36.531Z,83.10
2017-10-05T14:32:07.390Z,84.30
2017-10-05T14:34:37.857Z,83.60
2017-10-05T14:37:09.458Z,86.90
2017-10-05T14:39:39.735Z,86.80
2017-10-05T14:42:10.595Z,87.60
2017-10-05T14:44:41.476Z,86.40
2017-10-05T14:47:12.325Z,85.10
2017-10-05T14:49:42.723Z,84.50
2017-10-05T14:52:15.261Z,84.50
2017-10-05T14:54:47.018Z,85.30
2017-10-05T14:57:17.828Z,85.20
2017-10-05T14:59:49.940Z,85.80
2017-10-05T15:02:21.301Z,85.70
2017-10-05T15:04:51.987Z,85.90
2017-10-05T15:07:23.410Z,83.80
2017-10-05T15:09:54.369Z,83.60
2017-10-05T15:12:25.867Z,82.80
2017-10-05T15:14:56.795Z,82.10
2017-10-05T15:17:27.712Z,83.00
2017-10-05T15:19:58.334Z,83.40
2017-10-05T15:22:29.993Z,84.10
2017-10-05T15:25:01.137Z,84.20
2017-10-05T15:27:32.772Z,82.80
2017-10-05T15:30:03.513Z,82.80
2017-10-05T15:32:34.856Z,81.90
2017-10-05T15:35:06.548Z,81.80
2017-10-05T15:37:37.195Z,81.80
2017-10-05T15:40:08.007Z,81.60
2017-10-05T15:42:38.665Z,82.20
2017-10-05T15:45:09.885Z,82.10
2017-10-05T15:47:41.055Z,81.90
2017-10-05T15:50:12.040Z,81.40
2017-10-05T15:52:43.756Z,81.50
2017-10-05T15:55:14.646Z,81.50
2017-10-05T15:57:47.028Z,79.70
2017-10-05T16:00:18.012Z,79.70
2017-10-05T16:02:48.571Z,80.80
2017-10-05T16:05:21.052Z,80.70
2017-10-05T16:07:54.103Z,81.30
2017-10-05T16:10:25.077Z,81.30
2017-10-05T16:12:56.141Z,80.80
2017-10-05T16:15:26.904Z,80.80
2017-10-05T16:18:00.122Z,81.20
2017-10-05T16:20:31.283Z,81.50
2017-10-05T16:23:02.199Z,81.40
2017-10-05T16:25:33.159Z,81.80
2017-10-05T16:28:04.724Z,82.20
2017-10-05T16:30:36.140Z,82.30
2017-10-05T16:33:06.903Z,82.30
2017-10-05T16:35:37.527Z,82.30
2017-10-05T16:38:09.441Z,82.50
2017-10-05T16:40:40.315Z,82.50
2017-10-05T16:43:11.509Z,82.60
2017-10-05T16:45:42.089Z,82.60
2017-10-05T16:48:13.107Z,82.60
2017-10-05T16:50:43.871Z,82.90
2017-10-05T16:53:15.087Z,83.30
2017-10-05T16:55:45.719Z,83.30
2017-10-05T16:58:16.295Z,83.80
2017-10-05T17:00:47.799Z,84.50
2017-10-05T17:03:18.706Z,84.50
2017-10-05T17:05:52.707Z,84.90
2017-10-05T17:08:24.128Z,85.10
2017-10-05T17:10:54.760Z,85.10
2017-10-05T17:13:26.060Z,85.40
2017-10-05T17:15:56.441Z,85.30
2017-10-05T17:18:26.792Z,85.50
2017-10-05T17:20:57.108Z,85.40
2017-10-05T17:23:27.682Z,85.60
2017-10-05T17:25:58.142Z,85.90
2017-10-05T17:28:29.141Z,86.40
2017-10-05T17:31:00.037Z,86.50
2017-10-05T17:33:30.655Z,86.50
2017-10-05T17:36:01.710Z,87.40
2017-10-05T17:38:32.002Z,87.40
2017-10-05T17:41:02.379Z,87.70
2017-10-05T17:43:33.154Z,88.20
2017-10-05T17:46:03.950Z,88.70
2017-10-05T17:48:34.464Z,88.60
2017-10-05T17:51:05.105Z,87.70
2017-10-05T17:53:35.644Z,87.80
2017-10-05T17:56:07.211Z,87.60
2017-10-05T17:58:39.290Z,87.20
2017-10-05T18:01:09.633Z,87.20
2017-10-05T18:03:40.876Z,87.40
2017-10-05T18:06:12.283Z,87.60
2017-10-05T18:08:43.909Z,87.50
2017-10-05T18:11:15.240Z,87.30
2017-10-05T18:13:46.237Z,87.40
2017-10-05T18:16:16.770Z,87.40
2017-10-05T18:18:47.534Z,87.80
2017-10-05T18:21:18.762Z,87.90
2017-10-05T18:23:49.634Z,88.00
2017-10-05T18:26:21.039Z,88.30
2017-10-05T18:28:51.480Z,88.30
2017-10-05T18:31:21.851Z,88.60
2017-10-05T18:33:52.203Z,88.40
2017-10-05T18:36:22.556Z,88.10
2017-10-05T18:38:53.639Z,87.90
2017-10-05T18:41:24.382Z,87.80
2017-10-05T18:43:55.367Z,87.80
2017-10-05T18:46:27.391Z,87.90
2017-10-05T18:48:57.925Z,87.80
2017-10-05T18:51:29.012Z,87.50
2017-10-05T18:53:59.286Z,87.60
2017-10-05T18:56:29.728Z,87.00
2017-10-05T18:59:00.861Z,87.20
2017-10-05T19:01:31.912Z,87.20
2017-10-05T19:04:02.330Z,87.10
2017-10-05T19:06:32.680Z,87.10
2017-10-05T19:09:03.099Z,87.00
2017-10-05T19:11:33.502Z,87.20
2017-10-05T19:14:05.228Z,87.20
2017-10-05T19:16:36.702Z,87.50
2017-10-05T19:19:07.220Z,87.40
2017-10-05T19:21:37.975Z,87.50
2017-10-05T19:24:09.958Z,87.80
2017-10-05T19:26:40.429Z,87.80
2017-10-05T19:29:11.528Z,87.90
2017-10-05T19:31:42.258Z,87.90
2017-10-05T19:34:14.863Z,87.90
2017-10-05T19:36:45.801Z,87.80
2017-10-05T19:39:17.060Z,88.20
2017-10-05T19:41:50.464Z,88.20
2017-10-05T19:44:22.975Z,88.20
2017-10-05T19:46:54.796Z,88.10
2017-10-05T19:49:25.940Z,88.10
2017-10-05T19:51:56.772Z,88.10
2017-10-05T19:54:27.117Z,88.20
2017-10-05T19:56:58.752Z,88.40
2017-10-05T19:59:29.174Z,88.50
2017-10-05T20:02:01.109Z,88.50
2017-10-05T20:04:32.858Z,88.50
2017-10-05T20:07:03.556Z,88.50
2017-10-05T20:09:35.812Z,88.80
2017-10-05T20:12:06.941Z,88.70
2017-10-05T20:14:40.972Z,88.90
2017-10-05T20:17:32.116Z,88.90
2017-10-05T20:20:19.751Z,88.80
2017-10-05T20:22:51.542Z,89.20
2017-10-05T20:25:25.368Z,89.20
2017-10-05T20:28:01.552Z,89.20
2017-10-05T20:30:51.621Z,89.40
2017-10-05T20:33:22.368Z,89.40
2017-10-05T20:35:53.028Z,89.20
2017-10-05T20:38:23.511Z,89.00
2017-10-05T20:40:56.321Z,88.70
2017-10-05T20:43:27.831Z,88.70
2017-10-05T20:45:59.134Z,88.70
2017-10-05T20:48:29.569Z,88.60
2017-10-05T20:51:00.267Z,88.90
2017-10-05T20:53:30.487Z,88.40
2017-10-05T20:56:00.848Z,88.20
2017-10-05T20:58:32.615Z,87.60
2017-10-05T21:01:03.914Z,87.20
2017-10-05T21:03:34.470Z,87.10
2017-10-05T21:06:04.769Z,86.80
2017-10-05T21:08:35.710Z,87.00
2017-10-05T21:11:06.246Z,87.30
2017-10-05T21:13:37.888Z,87.60
2017-10-05T21:16:09.309Z,87.70
2017-10-05T21:18:39.801Z,87.50
2017-10-05T21:21:10.443Z,87.10
2017-10-05T21:23:40.677Z,86.80
2017-10-05T21:26:12.296Z,87.10
2017-10-05T21:28:43.482Z,86.90
2017-10-05T21:31:15.034Z,87.00
2017-10-05T21:33:46.609Z,87.10
2017-10-05T21:36:17.900Z,87.00
2017-10-05T21:38:49.148Z,87.90
2017-10-05T21:41:20.239Z,88.20
2017-10-05T21:43:50.889Z,88.20
2017-10-05T21:46:21.280Z,88.60
2017-10-05T21:48:52.596Z,89.40
2017-10-05T21:51:24.534Z,89.70
2017-10-05T21:53:55.318Z,89.60
2017-10-05T21:56:26.195Z,90.20
2017-10-05T21:58:56.277Z,90.20
2017-10-05T22:01:27.483Z,90.50
2017-10-05T22:03:59.187Z,90.60
2017-10-05T22:06:30.571Z,90.80
2017-10-05T22:09:01.397Z,90.70
2017-10-05T22:11:31.690Z,90.90
2017-10-05T22:14:02.403Z,91.30
2017-10-05T22:16:32.673Z,91.00
2017-10-05T22:19:04.289Z,91.10
2017-10-05T22:21:35.750Z,91.10
2017-10-05T22:24:07.036Z,91.20
2017-10-05T22:26:36.910Z,91.70
2017-10-05T22:29:07.997Z,91.80
2017-10-05T22:31:39.932Z,91.80
2017-10-05T22:34:10.400Z,91.70
2017-10-05T22:36:41.242Z,91.70
2017-10-05T22:39:11.733Z,91.70
2017-10-05T22:41:42.243Z,91.80
2017-10-05T22:44:13.123Z,91.70
2017-10-05T22:46:43.513Z,91.60
2017-10-05T22:49:15.225Z,91.50
2017-10-05T22:51:45.634Z,91.60
2017-10-05T22:54:16.106Z,91.60
2017-10-05T22:56:48.038Z,91.50
2017-10-05T22:59:18.620Z,91.50
2017-10-05T23:01:49.500Z,91.40
2017-10-05T23:04:19.639Z,91.40
2017-10-05T23:06:49.857Z,91.30
2017-10-05T23:09:20.290Z,90.80
2017-10-05T23:11:50.824Z,90.70
2017-10-05T23:14:21.230Z,90.70
2017-10-05T23:16:52.551Z,90.80
2017-10-05T23:19:23.456Z,90.80
2017-10-05T23:21:53.432Z,90.80
2017-10-05T23:24:24.013Z,90.90
2017-10-05T23:26:54.035Z,90.90
2017-10-05T23:29:24.550Z,90.80
2017-10-05T23:31:55.105Z,90.90
2017-10-05T23:34:25.542Z,90.80
2017-10-05T23:36:55.479Z,90.80
2017-10-05T23:39:25.691Z,90.90
2017-10-05T23:41:56.348Z,90.80
2017-10-05T23:44:27.248Z,91.10
2017-10-05T23:46:58.686Z,91.60
2017-10-05T23:49:29.620Z,91.70
2017-10-05T23:52:00.116Z,91.70
2017-10-05T23:54:30.633Z,91.70
2017-10-05T23:57:01.723Z,92.10
2017-10-05T23:59:32.159Z,92.10
